createdAt,value
2019-04-01T00:00:09.711Z,96810.44
2019-04-01T00:02:39.199Z,96805.47
2019-04-01T00:05:09.721Z,96806.69
2019-04-01T00:07:38.969Z,96800.81
2019-04-01T00:10:08.052Z,96800.98
2019-04-01T00:12:37.125Z,96803.58
2019-04-01T00:15:06.264Z,96797.66
2019-04-01T00:17:36.975Z,96793.22
2019-04-01T00:20:06.310Z,96791.28
2019-04-01T00:22:35.390Z,96795.25
2019-04-01T00:25:04.416Z,96798.28
2019-04-01T00:27:33.524Z,96799.84
2019-04-01T00:30:02.579Z,96793.88
2019-04-01T00:32:31.658Z,96789.56
2019-04-01T00:35:01.024Z,96792.34
2019-04-01T00:37:30.184Z,96787.02
2019-04-01T00:40:01.763Z,96790.83
2019-04-01T00:42:35.918Z,96794.41
2019-04-01T00:45:07.971Z,96756.02
2019-04-01T00:47:37.100Z,96792.33
2019-04-01T00:50:06.420Z,96785.06
2019-04-01T00:52:39.829Z,96785.42
2019-04-01T00:55:10.273Z,96788.77
2019-04-01T00:57:39.413Z,96788.52
2019-04-01T01:00:10.999Z,96780.88
2019-04-01T01:02:42.901Z,96776.90
2019-04-01T01:05:17.726Z,96782.03
2019-04-01T01:07:49.172Z,96777.26
2019-04-01T01:10:22.913Z,96784.28
2019-04-01T01:12:57.654Z,96780.61
2019-04-01T01:15:26.949Z,96773.94
2019-04-01T01:17:55.993Z,96781.61
2019-04-01T01:20:25.039Z,96780.33
2019-04-01T01:22:55.179Z,96780.39
2019-04-01T01:25:24.336Z,96774.94
2019-04-01T01:27:53.370Z,96778.18
2019-04-01T01:30:26.552Z,96780.58
2019-04-01T01:32:55.965Z,96775.50
2019-04-01T01:35:25.142Z,96779.36
2019-04-01T01:37:54.199Z,96776.19
2019-04-01T01:40:23.260Z,96773.03
2019-04-01T01:42:52.305Z,96776.83
2019-04-01T01:45:24.388Z,96779.88
2019-04-01T01:47:53.434Z,96771.98
2019-04-01T01:50:22.559Z,96775.02
2019-04-01T01:52:51.830Z,96779.16
2019-04-01T01:55:24.072Z,96773.38
2019-04-01T01:57:53.655Z,96776.65
2019-04-01T02:00:27.047Z,96778.71
2019-04-01T02:02:59.861Z,96769.44
2019-04-01T02:08:02.692Z,96769.91
2019-04-01T02:10:40.916Z,96763.31
2019-04-01T02:13:10.033Z,96766.83
2019-04-01T02:15:41.000Z,96768.34
2019-04-01T02:18:10.149Z,96766.58
2019-04-01T02:20:42.232Z,96763.56
2019-04-01T02:23:11.296Z,96762.43
2019-04-01T02:25:40.398Z,96756.50
2019-04-01T02:28:09.532Z,96757.13
2019-04-01T02:30:38.574Z,96753.67
2019-04-01T02:33:09.036Z,96765.07
2019-04-01T02:35:42.579Z,96762.88
2019-04-01T02:38:16.427Z,96755.58
2019-04-01T02:40:50.633Z,96758.22
2019-04-01T02:43:19.749Z,96754.78
2019-04-01T02:45:48.882Z,96753.27
2019-04-01T02:48:17.913Z,95506.50
2019-04-01T02:50:47.024Z,96757.88
2019-04-01T02:53:16.197Z,96756.45
2019-04-01T02:55:49.069Z,96757.69
2019-04-01T02:58:25.434Z,96757.15
2019-04-01T03:00:54.472Z,96761.70
2019-04-01T03:03:23.539Z,96755.98
2019-04-01T03:05:54.242Z,96752.55
2019-04-01T03:08:26.378Z,96756.81
2019-04-01T03:10:55.453Z,96747.94
2019-04-01T03:13:24.515Z,96753.58
2019-04-01T03:15:53.594Z,96751.25
2019-04-01T03:18:23.022Z,96756.03
2019-04-01T03:20:54.494Z,96750.61
2019-04-01T03:23:29.732Z,96749.69
2019-04-01T03:25:58.819Z,96748.30
2019-04-01T03:28:27.942Z,96750.90
2019-04-01T03:30:56.994Z,96752.67
2019-04-01T03:33:26.063Z,96755.84
2019-04-01T03:35:55.116Z,96754.19
2019-04-01T03:38:27.634Z,96752.00
2019-04-01T03:41:04.103Z,96759.08
2019-04-01T03:43:36.202Z,96758.55
2019-04-01T03:46:08.368Z,95472.89
2019-04-01T03:48:37.470Z,96758.62
2019-04-01T03:51:06.499Z,96756.02
2019-04-01T03:53:35.568Z,96752.94
2019-04-01T03:56:04.816Z,96761.37
2019-04-01T03:58:35.023Z,96756.57
2019-04-01T04:01:05.640Z,96755.91
2019-04-01T04:03:40.820Z,96763.16
2019-04-01T04:06:09.864Z,96765.27
2019-04-01T04:08:41.802Z,96762.52
2019-04-01T04:11:10.967Z,96760.82
2019-04-01T04:13:40.027Z,96763.22
2019-04-01T04:16:09.464Z,96768.19
2019-04-01T04:18:41.585Z,96768.52
2019-04-01T04:21:12.223Z,96769.16
2019-04-01T04:23:41.278Z,96766.38
2019-04-01T04:26:10.388Z,96774.63
2019-04-01T04:28:40.002Z,96773.85
2019-04-01T04:31:12.512Z,96770.30
2019-04-01T04:33:41.560Z,96764.66
2019-04-01T04:36:12.868Z,96770.02
2019-04-01T04:38:42.071Z,96768.25
2019-04-01T04:41:11.123Z,96768.44
2019-04-01T04:43:45.335Z,96407.81
2019-04-01T04:46:14.737Z,96767.42
2019-04-01T04:48:46.875Z,96767.02
2019-04-01T04:51:15.979Z,96773.16
2019-04-01T04:53:47.430Z,96772.44
2019-04-01T04:56:18.271Z,96768.87
2019-04-01T04:58:52.158Z,96772.81
2019-04-01T05:01:21.239Z,96768.77
2019-04-01T05:03:50.319Z,96771.69
2019-04-01T05:06:19.504Z,96777.08
2019-04-01T05:08:49.937Z,96779.77
2019-04-01T05:11:20.795Z,96783.53
2019-04-01T05:13:54.002Z,96785.52
2019-04-01T05:16:27.159Z,96782.10
2019-04-01T05:19:03.332Z,96777.47
2019-04-01T05:21:35.627Z,96783.81
2019-04-01T05:24:04.758Z,96778.34
2019-04-01T05:26:40.868Z,96781.08
2019-04-01T05:29:10.686Z,96783.91
2019-04-01T05:31:40.001Z,96788.86
2019-04-01T05:34:17.066Z,96791.64
2019-04-01T05:36:47.056Z,96791.09
2019-04-01T05:39:16.105Z,96793.55
2019-04-01T05:41:48.613Z,96789.03
2019-04-01T05:44:19.953Z,96796.22
2019-04-01T05:46:49.326Z,96796.24
2019-04-01T05:49:18.615Z,96799.45
2019-04-01T05:51:47.960Z,96788.73
2019-04-01T05:54:19.967Z,96798.59
2019-04-01T05:56:52.071Z,96795.81
2019-04-01T05:59:21.340Z,96799.28
2019-04-01T06:01:51.883Z,96794.40
2019-04-01T06:04:21.796Z,96802.84
2019-04-01T06:06:50.853Z,96803.95
2019-04-01T06:09:21.706Z,96806.69
2019-04-01T06:12:05.859Z,96807.86
2019-04-01T06:14:45.396Z,96813.22
2019-04-01T06:17:06.490Z,96813.03
2019-04-01T06:19:35.531Z,96814.28
2019-04-01T06:22:08.428Z,96808.31
2019-04-01T06:24:41.289Z,96812.89
2019-04-01T06:27:11.203Z,96811.70
2019-04-01T06:29:42.117Z,96810.46
2019-04-01T06:32:16.447Z,96813.64
2019-04-01T06:34:52.702Z,96811.27
2019-04-01T06:37:19.887Z,96816.04
2019-04-01T06:39:52.720Z,96815.01
2019-04-01T06:42:24.586Z,96809.77
2019-04-01T06:44:56.677Z,96812.45
2019-04-01T06:47:30.795Z,95480.05
2019-04-01T06:49:59.872Z,96816.58
2019-04-01T06:52:29.034Z,96811.11
2019-04-01T06:54:58.051Z,96808.90
2019-04-01T06:57:29.483Z,96806.01
2019-04-01T06:59:58.581Z,96813.22
2019-04-01T07:02:30.127Z,96807.75
2019-04-01T07:04:59.244Z,96811.40
2019-04-01T07:07:32.869Z,96498.86
2019-04-01T07:10:04.728Z,96807.11
2019-04-01T07:12:34.937Z,96807.11
2019-04-01T07:15:06.340Z,96831.77
2019-04-01T07:17:38.321Z,96799.23
2019-04-01T07:20:13.836Z,96799.45
2019-04-01T07:22:44.576Z,96801.23
2019-04-01T07:25:13.787Z,96796.41
2019-04-01T07:27:43.202Z,96791.27
2019-04-01T07:30:13.821Z,96795.92
2019-04-01T07:32:48.898Z,96793.63
2019-04-01T07:35:18.028Z,96801.14
2019-04-01T07:37:49.608Z,96797.50
2019-04-01T07:40:21.205Z,96802.53
2019-04-01T07:42:50.460Z,96806.26
2019-04-01T07:45:20.779Z,96807.09
2019-04-01T07:47:52.327Z,96796.60
2019-04-01T07:50:21.616Z,96800.91
2019-04-01T07:52:55.250Z,96806.02
2019-04-01T07:55:24.416Z,96804.70
2019-04-01T07:57:59.887Z,96742.64
2019-04-01T08:00:29.084Z,96797.62
2019-04-01T08:03:02.685Z,96817.97
2019-04-01T08:05:31.785Z,96791.55
2019-04-01T08:08:01.567Z,96789.86
2019-04-01T08:10:38.321Z,96796.39
2019-04-01T08:13:09.362Z,96791.45
2019-04-01T08:15:38.437Z,96791.34
2019-04-01T08:18:07.505Z,96790.59
2019-04-01T08:20:36.574Z,96789.98
2019-04-01T08:23:05.594Z,96789.09
2019-04-01T08:25:34.783Z,96791.87
2019-04-01T08:28:06.325Z,96789.64
2019-04-01T08:30:35.448Z,96785.86
2019-04-01T08:33:04.782Z,96781.91
2019-04-01T08:35:37.012Z,96789.05
2019-04-01T08:38:08.787Z,96722.14
2019-04-01T08:40:37.925Z,96784.02
2019-04-01T08:43:08.118Z,96783.23
2019-04-01T08:45:37.445Z,96782.34
2019-04-01T08:48:09.642Z,96502.15
2019-04-01T08:50:41.828Z,96783.36
2019-04-01T08:53:10.963Z,96780.80
2019-04-01T08:55:41.238Z,96784.63
2019-04-01T08:58:11.134Z,96776.48
2019-04-01T09:00:40.157Z,96784.13
2019-04-01T09:03:12.769Z,96784.33
2019-04-01T09:05:45.022Z,96783.87
2019-04-01T09:08:15.904Z,96780.70
2019-04-01T09:10:46.564Z,96784.96
2019-04-01T09:13:18.339Z,96781.12
2019-04-01T09:15:52.342Z,96783.93
2019-04-01T09:18:26.566Z,96810.61
2019-04-01T09:20:55.598Z,96787.53
2019-04-01T09:23:24.669Z,96803.89
2019-04-01T09:25:58.353Z,96773.28
2019-04-01T09:28:30.161Z,96774.84
2019-04-01T09:31:01.764Z,96775.30
2019-04-01T09:33:30.839Z,96775.72
2019-04-01T09:36:00.011Z,96767.73
2019-04-01T09:38:29.064Z,96767.93
2019-04-01T09:40:58.554Z,96759.47
2019-04-01T09:43:27.614Z,96763.95
2019-04-01T09:45:58.174Z,96765.09
2019-04-01T09:48:31.165Z,96761.94
2019-04-01T09:51:00.324Z,96759.01
2019-04-01T09:53:29.738Z,96756.63
2019-04-01T09:56:03.158Z,96755.31
2019-04-01T09:58:35.339Z,96750.79
2019-04-01T10:01:13.618Z,96368.13
2019-04-01T10:03:42.894Z,96743.86
2019-04-01T10:06:12.062Z,96747.34
2019-04-01T10:08:42.954Z,96740.98
2019-04-01T10:11:12.883Z,96739.37
2019-04-01T10:13:42.103Z,96739.30
2019-04-01T10:16:12.997Z,96740.61
2019-04-01T10:18:42.100Z,96736.16
2019-04-01T10:21:12.302Z,96741.20
2019-04-01T10:23:41.487Z,96735.05
2019-04-01T10:26:13.970Z,96730.50
2019-04-01T10:28:43.311Z,96722.66
2019-04-01T10:31:13.607Z,96725.10
2019-04-01T10:33:43.552Z,96724.68
2019-04-01T10:36:12.897Z,96722.14
2019-04-01T10:38:46.485Z,96717.63
2019-04-01T10:41:13.952Z,96715.05
2019-04-01T10:43:43.082Z,96716.53
2019-04-01T10:46:14.263Z,96721.92
2019-04-01T10:48:45.604Z,96714.37
2019-04-01T10:51:14.857Z,96714.55
2019-04-01T10:53:44.037Z,96753.81
2019-04-01T10:56:13.188Z,96707.72
2019-04-01T10:58:42.347Z,96706.27
2019-04-01T11:01:13.936Z,96708.31
2019-04-01T11:03:43.436Z,96700.50
2019-04-01T11:06:15.638Z,96697.84
2019-04-01T11:08:46.244Z,96688.16
2019-04-01T11:11:17.123Z,96684.33
2019-04-01T11:13:51.707Z,96680.76
2019-04-01T11:16:20.443Z,96675.31
2019-04-01T11:18:49.621Z,96674.50
2019-04-01T11:21:20.236Z,96676.67
2019-04-01T11:23:49.745Z,96675.89
2019-04-01T11:26:19.081Z,96674.30
2019-04-01T11:28:53.844Z,96669.37
2019-04-01T11:31:23.165Z,96666.66
2019-04-01T11:33:53.988Z,96610.25
2019-04-01T11:36:23.119Z,96657.97
2019-04-01T11:38:52.547Z,96649.57
2019-04-01T11:41:22.278Z,96649.41
2019-04-01T11:43:52.535Z,96648.83
2019-04-01T11:46:23.217Z,96644.14
2019-04-01T11:48:52.570Z,96646.38
2019-04-01T11:51:32.535Z,96644.43
2019-04-01T11:53:53.901Z,96639.95
2019-04-01T11:56:29.253Z,96637.63
2019-04-01T11:59:01.597Z,96630.69
2019-04-01T12:01:30.665Z,96631.87
2019-04-01T12:03:59.799Z,96624.72
2019-04-01T12:06:30.246Z,96622.72
2019-04-01T12:09:07.024Z,96280.89
2019-04-01T12:11:42.146Z,96608.52
2019-04-01T12:14:12.301Z,96625.71
2019-04-01T12:16:47.873Z,96603.38
2019-04-01T12:19:20.048Z,96594.63
2019-04-01T12:21:49.217Z,96590.66
2019-04-01T12:24:18.299Z,96589.62
2019-04-01T12:26:48.880Z,96575.62
2019-04-01T12:29:17.918Z,96571.42
2019-04-01T12:31:49.654Z,96572.83
2019-04-01T12:34:18.975Z,96577.05
2019-04-01T12:36:50.583Z,96571.22
2019-04-01T12:39:20.186Z,96568.66
2019-04-01T12:41:51.730Z,96560.73
2019-04-01T12:44:20.950Z,96552.91
2019-04-01T12:46:51.180Z,96558.30
2019-04-01T12:49:23.837Z,96557.22
2019-04-01T12:51:58.592Z,96552.78
2019-04-01T12:54:31.446Z,96553.06
2019-04-01T12:57:00.573Z,96546.44
2019-04-01T12:59:32.370Z,96539.06
2019-04-01T13:02:02.641Z,96542.25
2019-04-01T13:04:31.718Z,96533.13
2019-04-01T13:07:04.830Z,96535.80
2019-04-01T13:09:32.218Z,96521.07
2019-04-01T13:12:04.431Z,96525.75
2019-04-01T13:14:40.070Z,96528.23
2019-04-01T13:17:08.871Z,96519.57
2019-04-01T13:19:38.031Z,96511.75
2019-04-01T13:22:09.155Z,96512.19
2019-04-01T13:24:38.878Z,96507.47
2019-04-01T13:27:09.304Z,96445.61
2019-04-01T13:29:42.875Z,96506.63
2019-04-01T13:32:12.059Z,96529.39
2019-04-01T13:34:42.494Z,96498.23
2019-04-01T13:37:14.160Z,96486.38
2019-04-01T13:39:46.268Z,96491.12
2019-04-01T13:42:17.736Z,96489.40
2019-04-01T13:44:49.387Z,95317.11
2019-04-01T13:47:22.140Z,96490.97
2019-04-01T13:50:00.451Z,96482.54
2019-04-01T13:52:30.598Z,96477.42
2019-04-01T13:55:03.178Z,96473.36
2019-04-01T13:57:30.671Z,96467.00
2019-04-01T14:00:03.725Z,96467.00
2019-04-01T14:02:35.788Z,96467.06
2019-04-01T14:05:06.271Z,96459.28
2019-04-01T14:07:35.921Z,96459.33
2019-04-01T14:10:06.133Z,96455.48
2019-04-01T14:12:35.329Z,96452.97
2019-04-01T14:15:04.980Z,96452.14
2019-04-01T14:17:34.223Z,96451.25
2019-04-01T14:20:05.214Z,96448.44
2019-04-01T14:22:34.259Z,96449.76
2019-04-01T14:25:07.130Z,96440.52
2019-04-01T14:27:39.264Z,96442.90
2019-04-01T14:30:08.847Z,96445.41
2019-04-01T14:32:44.549Z,96443.89
2019-04-01T14:35:15.859Z,96427.02
2019-04-01T14:37:46.352Z,96442.95
2019-04-01T14:40:22.022Z,96434.44
2019-04-01T14:42:53.691Z,96433.41
2019-04-01T14:45:23.101Z,96433.73
2019-04-01T14:47:57.833Z,96431.86
2019-04-01T14:50:37.795Z,96435.14
2019-04-01T14:53:07.840Z,96428.28
2019-04-01T14:55:37.027Z,95200.97
2019-04-01T14:58:07.931Z,96423.93
2019-04-01T15:00:40.127Z,96421.78
2019-04-01T15:03:10.192Z,96421.29
2019-04-01T15:05:39.567Z,96420.02
2019-04-01T15:08:08.640Z,95248.65
2019-04-01T15:10:41.013Z,96423.00
2019-04-01T15:13:11.891Z,96422.17
2019-04-01T15:15:41.478Z,96425.81
2019-04-01T15:18:10.639Z,96421.60
2019-04-01T15:20:39.696Z,96422.61
2019-04-01T15:23:08.742Z,96416.51
2019-04-01T15:25:37.946Z,96416.92
2019-04-01T15:28:07.954Z,96418.42
2019-04-01T15:30:37.027Z,96405.34
2019-04-01T15:33:06.081Z,96408.63
2019-04-01T15:35:35.646Z,96401.64
2019-04-01T15:38:10.098Z,96398.02
2019-04-01T15:40:39.182Z,96401.09
2019-04-01T15:43:08.255Z,96392.32
2019-04-01T15:45:37.344Z,96389.59
2019-04-01T15:48:07.629Z,96388.14
2019-04-01T15:50:38.323Z,96385.67
2019-04-01T15:53:11.221Z,96388.90
2019-04-01T15:55:43.559Z,96379.57
2019-04-01T15:58:12.601Z,96378.88
2019-04-01T16:00:42.064Z,96370.59
2019-04-01T16:03:15.156Z,96373.19
2019-04-01T16:05:45.611Z,96362.36
2019-04-01T16:08:15.568Z,96365.22
2019-04-01T16:10:44.951Z,96358.52
2019-04-01T16:13:15.522Z,96360.42
2019-04-01T16:16:07.070Z,96362.19
2019-04-01T16:18:36.662Z,96359.77
2019-04-01T16:21:05.927Z,96352.97
2019-04-01T16:23:38.337Z,96359.66
2019-04-01T16:26:09.524Z,96355.89
2019-04-01T16:28:49.239Z,96352.82
2019-04-01T16:31:18.445Z,96360.65
2019-04-01T16:33:47.536Z,96358.45
2019-04-01T16:36:16.594Z,96354.43
2019-04-01T16:38:46.070Z,96354.05
2019-04-01T16:41:18.424Z,96351.67
2019-04-01T16:43:56.731Z,96356.33
2019-04-01T16:46:25.811Z,96352.38
2019-04-01T16:48:55.246Z,96353.11
2019-04-01T16:51:25.924Z,96353.94
2019-04-01T16:53:56.447Z,96349.15
2019-04-01T16:56:28.310Z,96353.00
2019-04-01T16:58:57.428Z,96353.33
2019-04-01T17:01:27.687Z,96350.77
2019-04-01T17:04:00.071Z,96352.13
2019-04-01T17:06:29.224Z,96348.13
2019-04-01T17:08:58.347Z,96354.55
2019-04-01T17:11:28.507Z,96350.05
2019-04-01T17:14:00.016Z,96352.77
2019-04-01T17:16:29.160Z,96348.52
2019-04-01T17:18:58.336Z,96345.73
2019-04-01T17:21:27.463Z,96354.64
2019-04-01T17:23:59.712Z,96350.96
2019-04-01T17:26:28.773Z,96351.49
2019-04-01T17:28:57.939Z,96352.47
2019-04-01T17:31:27.067Z,96355.33
2019-04-01T17:33:56.159Z,96350.34
2019-04-01T17:36:25.319Z,96351.26
2019-04-01T17:38:56.567Z,96357.25
2019-04-01T17:41:25.636Z,96354.22
2019-04-01T17:43:56.447Z,96358.27
2019-04-01T17:46:29.278Z,96360.38
2019-04-01T17:48:58.370Z,96358.66
2019-04-01T17:51:27.462Z,96350.70
2019-04-01T17:53:56.535Z,96357.48
2019-04-01T17:56:27.475Z,96353.08
2019-04-01T17:58:56.515Z,96355.60
2019-04-01T18:01:25.643Z,96353.27
2019-04-01T18:03:54.710Z,96354.03
2019-04-01T18:06:24.100Z,96353.32
2019-04-01T18:08:54.498Z,96361.03
2019-04-01T18:11:23.693Z,96353.06
2019-04-01T18:13:57.367Z,96359.91
2019-04-01T18:16:26.482Z,96362.91
2019-04-01T18:18:59.284Z,96361.56
2019-04-01T18:21:28.414Z,96362.61
2019-04-01T18:23:57.472Z,96365.66
2019-04-01T18:26:30.966Z,96368.86
2019-04-01T18:29:04.166Z,96364.59
2019-04-01T18:31:44.442Z,96370.36
2019-04-01T18:34:13.507Z,96369.28
2019-04-01T18:36:42.562Z,96372.68
2019-04-01T18:39:11.648Z,96371.66
2019-04-01T18:41:40.733Z,96370.70
2019-04-01T18:44:10.958Z,96374.63
2019-04-01T18:46:41.137Z,96378.41
2019-04-01T18:49:10.227Z,96382.20
2019-04-01T18:51:42.873Z,96385.03
2019-04-01T18:54:11.995Z,96378.61
2019-04-01T18:56:41.064Z,96382.45
2019-04-01T18:59:10.154Z,96382.23
2019-04-01T19:01:39.515Z,96384.81
2019-04-01T19:04:09.707Z,96388.56
2019-04-01T19:06:40.638Z,96387.05
2019-04-01T19:09:13.180Z,96388.09
2019-04-01T19:11:43.543Z,96390.97
2019-04-01T19:14:16.609Z,96387.27
2019-04-01T19:16:47.466Z,96392.13
2019-04-01T19:19:16.531Z,96391.86
2019-04-01T19:21:45.818Z,96390.28
2019-04-01T19:24:16.138Z,96384.98
2019-04-01T19:26:47.694Z,96390.70
2019-04-01T19:29:16.841Z,96390.70
2019-04-01T19:31:45.928Z,96388.26
2019-04-01T19:34:15.431Z,96385.08
2019-04-01T19:36:48.956Z,96386.58
2019-04-01T19:39:18.047Z,96388.81
2019-04-01T19:41:49.044Z,96387.87
2019-04-01T19:44:22.688Z,96392.86
2019-04-01T19:46:51.957Z,96394.31
2019-04-01T19:49:26.780Z,96394.53
2019-04-01T19:51:57.719Z,96140.33
2019-04-01T19:54:33.613Z,96394.05
2019-04-01T19:57:03.153Z,96392.86
2019-04-01T19:59:35.699Z,96390.35
2019-04-01T20:02:09.730Z,96391.09
2019-04-01T20:04:39.124Z,96389.63
2019-04-01T20:07:10.775Z,96384.92
2019-04-01T20:09:39.854Z,96382.96
2019-04-01T20:12:10.104Z,96382.61
2019-04-01T20:14:41.605Z,96380.30
2019-04-01T20:17:19.215Z,96377.38
2019-04-01T20:19:49.937Z,96381.20
2019-04-01T20:22:19.075Z,96381.13
2019-04-01T20:24:48.296Z,96376.73
2019-04-01T20:27:23.037Z,96370.40
2019-04-01T20:29:52.310Z,96374.31
2019-04-01T20:32:22.786Z,96368.70
2019-04-01T20:34:57.170Z,96367.27
2019-04-01T20:37:23.762Z,96367.13
2019-04-01T20:39:52.797Z,96360.33
2019-04-01T20:42:22.967Z,96364.39
2019-04-01T20:44:52.029Z,96362.53
2019-04-01T20:47:21.125Z,96364.58
2019-04-01T20:49:50.217Z,96362.97
2019-04-01T20:52:26.780Z,96369.14
2019-04-01T20:54:55.903Z,96366.44
2019-04-01T20:57:24.981Z,96363.41
2019-04-01T20:59:57.374Z,96361.01
2019-04-01T21:02:28.052Z,96359.45
2019-04-01T21:04:57.169Z,96351.39
2019-04-01T21:07:26.229Z,96353.58
2019-04-01T21:09:55.347Z,96349.28
2019-04-01T21:12:24.405Z,96346.02
2019-04-01T21:14:56.151Z,96347.79
2019-04-01T21:17:25.382Z,96347.69
2019-04-01T21:19:54.559Z,96346.28
2019-04-01T21:22:23.604Z,96346.77
2019-04-01T21:24:52.681Z,96346.80
2019-04-01T21:27:23.174Z,96347.52
2019-04-01T21:29:52.671Z,96341.48
2019-04-01T21:32:21.778Z,96342.94
2019-04-01T21:34:50.851Z,96340.80
2019-04-01T21:37:19.917Z,96339.53
2019-04-01T21:39:49.407Z,96341.77
2019-04-01T21:42:22.964Z,96338.95
2019-04-01T21:44:52.296Z,96341.33
2019-04-01T21:47:25.511Z,96338.98
2019-04-01T21:49:56.468Z,96338.92
2019-04-01T21:52:26.784Z,96334.27
2019-04-01T21:54:58.880Z,96330.19
2019-04-01T21:57:30.077Z,96335.47
2019-04-01T21:59:59.245Z,96334.03
2019-04-01T22:02:40.436Z,96330.86
2019-04-01T22:05:15.900Z,96333.15
2019-04-01T22:07:48.241Z,96327.59
2019-04-01T22:10:17.768Z,96328.80
2019-04-01T22:12:46.818Z,96332.59
2019-04-01T22:15:18.601Z,96352.84
2019-04-01T22:18:01.038Z,96328.70
2019-04-01T22:20:30.105Z,96325.19
2019-04-01T22:23:00.440Z,96319.27
2019-04-01T22:25:33.015Z,96318.25
2019-04-01T22:28:02.114Z,96318.13
2019-04-01T22:30:31.284Z,96316.31
2019-04-01T22:33:00.336Z,96318.69
2019-04-01T22:35:38.650Z,96314.55
2019-04-01T22:38:00.389Z,96317.02
2019-04-01T22:40:30.564Z,94827.45
2019-04-01T22:43:01.287Z,96307.41
2019-04-01T22:45:33.377Z,96308.08
2019-04-01T22:48:11.579Z,96304.02
2019-04-01T22:50:40.761Z,96300.48
2019-04-01T22:53:09.835Z,96306.42
2019-04-01T22:55:38.919Z,96306.58
2019-04-01T22:58:08.003Z,96302.69
2019-04-01T23:00:37.450Z,96301.20
2019-04-01T23:03:07.082Z,96298.05
2019-04-01T23:05:37.780Z,96299.94
2019-04-01T23:08:07.401Z,96294.97
2019-04-01T23:10:40.229Z,96292.47
2019-04-01T23:13:09.308Z,96291.59
2019-04-01T23:15:38.428Z,96283.71
2019-04-01T23:18:07.540Z,96289.84
2019-04-01T23:20:36.986Z,96288.25
2019-04-01T23:23:09.628Z,96279.91
2019-04-01T23:25:40.298Z,96284.51
2019-04-01T23:28:11.686Z,96277.35
2019-04-01T23:30:40.780Z,96279.33
2019-04-01T23:33:09.868Z,96280.14
2019-04-01T23:35:39.176Z,96279.33
2019-04-01T23:38:11.428Z,96277.81
2019-04-01T23:40:42.079Z,96274.40
2019-04-01T23:43:11.231Z,96273.30
2019-04-01T23:45:40.273Z,96270.34
2019-04-01T23:48:11.178Z,96270.08
2019-04-01T23:50:40.278Z,96266.47
2019-04-01T23:53:11.128Z,96266.16
2019-04-01T23:55:40.340Z,96265.54
2019-04-01T23:58:09.445Z,96259.42
